Time;durP1;ratioP1;P1;durP2;ratioP2;P2;SDS_P1;SDS_P2;PMS_P1;PMS_P2;Temp;Humidity;BMP_temperature;BMP_pressure;BME280_temperature;BME280_humidity;BME280_pressure;Samples;Min_cycle;Max_cycle;Signal;HPM_P1;HPM_P2
2022/07/25 00:00:29;;;;;;;0.00;0.00;;;24.40;61.80;;;25.66;54.00;101083.38;2080570;28;20077;-62
2022/07/25 00:01:32;;;;;;;0.00;0.00;;;24.40;61.80;;;25.66;54.17;101077.84;2078586;28;20061;-61
2022/07/25 00:02:36;;;;;;;0.00;0.00;;;24.40;61.80;;;25.64;53.62;101080.25;2075573;28;20122;-61
2022/07/25 00:03:39;;;;;;;0.00;0.00;;;24.30;61.80;;;25.62;54.22;101079.16;2076280;28;20084;-61
2022/07/25 00:04:44;;;;;;;0.00;0.00;;;24.40;61.80;;;25.61;54.21;101072.06;2077337;28;20053;-61
2022/07/25 00:05:47;;;;;;;0.03;0.03;;;24.30;61.80;;;25.60;53.79;101070.50;2078317;28;20409;-62
2022/07/25 00:06:50;;;;;;;0.00;0.00;;;24.40;61.90;;;25.59;54.48;101069.75;2078230;28;20045;-61
2022/07/25 00:07:54;;;;;;;0.00;0.00;;;24.30;61.80;;;25.55;54.47;101066.28;2078030;28;20045;-62
2022/07/25 00:08:57;;;;;;;0.03;0.03;;;24.30;61.90;;;25.53;53.89;101067.94;2078949;28;20139;-63
2022/07/25 00:10:00;;;;;;;0.00;0.00;;;24.30;62.00;;;25.53;54.62;101068.72;2078550;28;20086;-63
2022/07/25 00:11:03;;;;;;;0.10;0.10;;;24.20;62.00;;;25.53;54.12;101062.41;2078182;28;20460;-61
2022/07/25 00:12:07;;;;;;;0.00;0.00;;;24.20;62.10;;;25.54;54.65;101061.19;2078145;28;20053;-61
2022/07/25 00:13:12;;;;;;;0.00;0.00;;;24.20;62.20;;;25.53;54.08;101057.66;2077832;28;20500;-62
2022/07/25 00:14:15;;;;;;;0.05;0.05;;;24.20;62.30;;;25.53;54.69;101057.66;2078239;28;20497;-61
2022/07/25 00:15:18;;;;;;;0.10;0.10;;;24.20;62.30;;;25.52;54.31;101055.31;2079049;28;20132;-62
2022/07/25 00:16:22;;;;;;;0.00;0.00;;;24.20;62.40;;;25.52;54.62;101060.84;2078759;28;20538;-61
2022/07/25 00:17:26;;;;;;;0.00;0.00;;;24.20;62.40;;;25.52;54.20;101055.31;2078298;28;20057;-63
2022/07/25 00:18:28;;;;;;;0.08;0.08;;;24.20;62.40;;;25.51;54.46;101054.56;2077315;28;20061;-61
2022/07/25 00:19:31;;;;;;;0.00;0.00;;;24.20;62.40;;;25.49;53.86;101051.44;2078360;28;20092;-63
2022/07/25 00:20:34;;;;;;;0.00;0.00;;;24.20;62.30;;;25.47;53.97;101055.84;2077743;28;20080;-61
2022/07/25 00:21:38;;;;;;;0.10;0.10;;;24.20;62.30;;;25.46;54.78;101057.06;2068193;28;20147;-62
2022/07/25 00:22:41;;;;;;;0.10;0.10;;;24.20;62.30;;;25.45;54.88;101056.28;2069779;28;20103;-64
2022/07/25 00:23:48;;;;;;;0.00;0.00;;;24.20;62.30;;;25.47;54.32;101055.84;2077863;28;20053;-62
2022/07/25 00:24:53;;;;;;;0.00;0.00;;;24.30;62.30;;;25.49;54.10;101056.19;2078063;28;20103;-62
2022/07/25 00:26:00;;;;;;;0.00;0.00;;;24.30;62.30;;;25.52;54.61;101056.09;2078310;28;20372;-63
2022/07/25 00:27:06;;;;;;;0.00;0.00;;;24.30;62.20;;;25.56;54.32;101067.06;2077103;28;20442;-61
2022/07/25 00:28:11;;;;;;;0.00;0.00;;;24.30;62.10;;;25.59;54.47;101066.19;2068068;28;20049;-61
2022/07/25 00:29:13;;;;;;;0.08;0.08;;;24.30;62.00;;;25.60;54.18;101064.97;2070647;28;20052;-61
2022/07/25 00:30:16;;;;;;;0.00;0.00;;;24.40;62.00;;;25.61;54.30;101061.00;2077705;28;20053;-62
2022/07/25 00:31:19;;;;;;;0.00;0.00;;;24.40;61.90;;;25.61;54.46;101063.78;2077879;28;20057;-65
2022/07/25 00:32:22;;;;;;;0.00;0.00;;;24.40;61.80;;;25.60;53.89;101059.44;2078174;28;20057;-62
2022/07/25 00:33:25;;;;;;;0.10;0.10;;;24.40;61.80;;;25.58;53.72;101059.88;2078095;28;20453;-61
2022/07/25 00:34:28;;;;;;;0.10;0.10;;;24.40;61.70;;;25.59;54.04;101055.13;2077541;28;20053;-62
2022/07/25 00:35:30;;;;;;;0.10;0.00;;;24.40;61.60;;;25.60;54.22;101059.44;2077606;28;20148;-61
2022/07/25 00:36:34;;;;;;;0.00;0.00;;;24.40;61.60;;;25.61;53.73;101052.72;2078736;28;20571;-61
2022/07/25 00:37:36;;;;;;;0.00;0.00;;;24.40;61.60;;;25.63;53.94;101050.25;2078297;28;20096;-61
2022/07/25 00:38:40;;;;;;;0.00;0.00;;;24.40;61.60;;;25.65;53.91;101053.38;2078309;28;20132;-62
2022/07/25 00:39:43;;;;;;;0.00;0.00;;;24.40;61.60;;;25.67;53.53;101045.44;2078151;28;20064;-62
2022/07/25 00:40:49;;;;;;;0.00;0.00;;;24.40;61.60;;;25.68;54.22;101047.75;2077474;28;20128;-65
2022/07/25 00:41:57;;;;;;;0.00;0.00;;;24.40;61.50;;;25.69;53.63;101048.53;2077834;28;20098;-61
2022/07/25 00:43:00;;;;;;;0.00;0.00;;;24.40;61.60;;;25.68;54.31;101041.44;2078074;28;20057;-62
2022/07/25 00:44:04;;;;;;;0.00;0.00;;;24.50;61.70;;;25.68;54.11;101045.00;2077366;28;20064;-61
2022/07/25 00:45:08;;;;;;;0.00;0.00;;;24.50;61.70;;;25.68;54.27;101046.97;2078667;28;20058;-61
2022/07/25 00:46:14;;;;;;;0.00;0.00;;;24.50;61.70;;;25.67;54.07;101043.41;2077261;28;20565;-62
2022/07/25 00:47:21;;;;;;;0.10;0.10;;;24.50;61.70;;;25.66;54.23;101052.16;2077945;28;20053;-61
2022/07/25 00:48:23;;;;;;;0.00;0.00;;;24.50;61.80;;;25.64;54.01;101036.00;2077210;28;20140;-61
2022/07/25 00:49:28;;;;;;;0.00;0.00;;;24.50;61.90;;;25.65;54.24;101043.09;2077900;28;20537;-62
2022/07/25 00:50:31;;;;;;;0.00;0.00;;;24.50;62.00;;;25.66;53.97;101043.84;2076841;28;20124;-61
2022/07/25 00:51:34;;;;;;;0.00;0.00;;;24.50;62.10;;;25.67;54.75;101045.44;2078562;28;20053;-61
2022/07/25 00:52:37;;;;;;;0.00;0.00;;;24.40;62.20;;;25.65;54.84;101050.63;2067206;28;20502;-61
2022/07/25 00:53:44;;;;;;;0.00;0.00;;;24.40;62.30;;;25.63;55.01;101048.28;2069067;28;20517;-66
2022/07/25 00:54:48;;;;;;;0.10;0.10;;;24.40;62.40;;;25.61;55.07;101036.88;2078844;28;20536;-62
2022/07/25 00:55:52;;;;;;;0.00;0.00;;;24.40;62.60;;;25.60;54.56;101040.88;2078427;28;20046;-62
2022/07/25 00:56:54;;;;;;;0.08;0.08;;;24.40;62.60;;;25.56;55.13;101028.34;2077292;28;20557;-61
2022/07/25 00:57:58;;;;;;;0.03;0.03;;;24.40;62.70;;;25.58;55.15;101034.22;2078077;28;20077;-61
2022/07/25 00:59:00;;;;;;;0.10;0.10;;;24.40;62.70;;;25.57;54.68;101032.66;2078271;28;20049;-61
2022/07/25 01:00:07;;;;;;;0.00;0.00;;;24.40;62.80;;;25.56;55.46;101028.34;2077497;28;20571;-61
2022/07/25 01:01:09;;;;;;;0.00;0.00;;;24.40;62.90;;;25.56;54.94;101031.13;2067954;28;20549;-62
2022/07/25 01:02:13;;;;;;;0.10;0.10;;;24.40;62.90;;;25.56;55.50;101033.88;2067340;28;20552;-62
2022/07/25 01:03:16;;;;;;;0.00;0.00;;;24.40;63.00;;;25.54;55.03;101025.25;2078286;28;20084;-61
2022/07/25 01:04:20;;;;;;;0.10;0.10;;;24.40;63.00;;;25.56;55.60;101028.34;2076567;28;20065;-63
2022/07/25 01:05:23;;;;;;;0.00;0.00;;;24.40;63.10;;;25.57;55.41;101032.66;2077022;28;20080;-62
2022/07/25 01:06:27;;;;;;;0.00;0.00;;;24.40;63.20;;;25.57;55.10;101035.44;2078842;28;20679;-61
2022/07/25 01:07:30;;;;;;;0.00;0.00;;;24.40;63.20;;;25.58;55.68;101028.69;2078198;28;20049;-63
2022/07/25 01:08:33;;;;;;;0.00;0.00;;;24.30;63.30;;;25.53;54.98;101023.72;2077754;28;20053;-61
2022/07/25 01:09:36;;;;;;;0.10;0.10;;;24.30;63.30;;;25.55;55.04;101026.78;2078141;28;20120;-61
2022/07/25 01:10:41;;;;;;;0.00;0.00;;;24.30;63.40;;;25.53;55.70;101034.78;2077475;28;20057;-63
2022/07/25 01:11:44;;;;;;;0.00;0.00;;;24.30;63.50;;;25.53;55.67;101023.72;2077549;28;20081;-63
2022/07/25 01:12:53;;;;;;;0.00;0.00;;;24.30;63.60;;;25.55;55.88;101026.78;2068231;28;20450;-62
2022/07/25 01:13:59;;;;;;;0.00;0.00;;;24.30;63.70;;;25.54;55.26;101025.25;2069449;28;20104;-63
2022/07/25 01:15:03;;;;;;;0.00;0.00;;;24.30;63.70;;;25.53;55.81;101035.53;2078182;28;20053;-62
2022/07/25 01:16:07;;;;;;;0.00;0.00;;;24.30;63.70;;;25.54;55.49;101020.50;2078212;28;20053;-61
2022/07/25 01:17:12;;;;;;;0.00;0.00;;;24.20;63.70;;;25.52;55.21;101022.91;2078088;28;20084;-61
2022/07/25 01:18:16;;;;;;;0.00;0.00;;;24.20;63.80;;;25.50;55.19;101019.06;2077113;28;20149;-62
2022/07/25 01:19:20;;;;;;;0.03;0.03;;;24.20;63.80;;;25.53;55.19;101020.94;2078119;28;20115;-63
2022/07/25 01:20:26;;;;;;;0.00;0.00;;;24.20;63.80;;;25.52;55.65;101022.91;2077733;28;20511;-62
2022/07/25 01:21:30;;;;;;;0.00;0.00;;;24.20;63.90;;;25.53;55.95;101018.19;2078247;28;20077;-61
2022/07/25 01:22:32;;;;;;;0.00;0.00;;;24.30;63.90;;;25.53;55.48;101007.13;2077777;28;20535;-61
2022/07/25 01:23:37;;;;;;;0.03;0.03;;;24.30;63.90;;;25.55;55.22;101015.72;2077958;28;20061;-62
2022/07/25 01:24:39;;;;;;;0.00;0.00;;;24.30;63.90;;;25.56;55.94;101017.28;2077601;28;20524;-62
2022/07/25 01:25:43;;;;;;;0.00;0.00;;;24.30;63.90;;;25.55;55.72;101010.97;2067352;28;20057;-61
2022/07/25 01:26:45;;;;;;;0.03;0.03;;;24.30;63.90;;;25.57;55.93;101016.84;2068470;28;20050;-61
2022/07/25 01:27:50;;;;;;;0.00;0.00;;;24.30;63.90;;;25.58;55.15;101014.84;2077431;28;20096;-61
2022/07/25 01:28:57;;;;;;;0.10;0.10;;;24.30;63.90;;;25.59;55.82;101017.19;2078450;28;20057;-61
2022/07/25 01:30:00;;;;;;;0.10;0.10;;;24.30;63.90;;;25.56;55.21;101012.53;2077964;28;20575;-63
2022/07/25 01:31:03;;;;;;;0.00;0.00;;;24.30;63.90;;;25.56;55.41;101000.72;2077771;28;20458;-61
2022/07/25 01:32:06;;;;;;;0.10;0.10;;;24.30;63.90;;;25.56;55.45;101006.25;2078587;28;20041;-61
2022/07/25 01:33:13;;;;;;;0.08;0.08;;;24.30;63.90;;;25.56;55.53;101009.00;2077119;28;20060;-61
2022/07/25 01:34:17;;;;;;;0.00;0.00;;;24.20;63.90;;;25.56;55.93;101009.00;2077970;28;20077;-62
2022/07/25 01:35:19;;;;;;;0.00;0.00;;;24.20;64.00;;;25.55;55.71;101004.66;2078233;28;20061;-63
2022/07/25 01:36:24;;;;;;;0.00;0.00;;;24.20;63.90;;;25.54;55.91;100992.84;2077961;28;20092;-61
2022/07/25 01:37:27;;;;;;;0.00;0.00;;;24.20;64.10;;;25.55;55.72;100996.38;2077764;28;20057;-64
2022/07/25 01:38:30;;;;;;;0.05;0.05;;;24.20;64.10;;;25.56;55.26;100995.19;2077160;28;20057;-61
2022/07/25 01:39:32;;;;;;;0.10;0.10;;;24.20;64.10;;;25.56;55.33;100995.19;2077839;28;20405;-62
2022/07/25 01:40:36;;;;;;;0.00;0.00;;;24.20;64.10;;;25.56;55.96;100987.63;2077899;28;20049;-62
2022/07/25 01:41:38;;;;;;;0.00;0.00;;;24.20;64.20;;;25.54;56.03;100992.84;2077056;28;20390;-61
2022/07/25 01:42:42;;;;;;;0.00;0.00;;;24.20;64.20;;;25.55;55.51;100986.09;2076299;28;20183;-62
2022/07/25 01:43:45;;;;;;;0.10;0.10;;;24.20;64.10;;;25.56;55.25;100992.41;2079672;28;20049;-62
2022/07/25 01:44:48;;;;;;;0.00;0.00;;;24.20;64.20;;;25.56;55.92;100995.19;2078481;28;20092;-61
2022/07/25 01:45:51;;;;;;;0.00;0.00;;;24.20;64.20;;;25.57;55.29;100993.94;2079775;28;20053;-61
2022/07/25 01:46:54;;;;;;;0.00;0.00;;;24.20;64.20;;;25.58;55.48;100987.19;2077027;28;20445;-61
2022/07/25 01:47:57;;;;;;;0.00;0.00;;;24.20;64.20;;;25.58;55.86;100982.44;2076834;28;20092;-62
2022/07/25 01:49:00;;;;;;;0.08;0.08;;;24.20;64.20;;;25.58;55.36;100984.44;2077024;28;20091;-62
2022/07/25 01:50:05;;;;;;;0.00;0.00;;;24.20;64.20;;;25.58;55.85;100978.91;2078855;28;20054;-62
2022/07/25 01:51:10;;;;;;;0.00;0.00;;;24.20;64.20;;;25.59;55.29;100983.22;2069993;28;20050;-61
2022/07/25 01:52:14;;;;;;;0.00;0.00;;;24.20;64.20;;;25.58;55.23;100976.91;2071435;28;20481;-61
2022/07/25 01:53:18;;;;;;;0.03;0.03;;;24.20;64.30;;;25.59;55.49;100978.50;2068976;28;20406;-62
2022/07/25 01:54:21;;;;;;;0.00;0.00;;;24.20;64.30;;;25.59;55.29;100977.69;2070756;28;20492;-62
2022/07/25 01:55:24;;;;;;;0.00;0.00;;;24.20;64.30;;;25.57;55.62;100974.59;2078653;28;20049;-62
2022/07/25 01:56:29;;;;;;;0.00;0.00;;;24.20;64.30;;;25.57;55.45;100974.59;2077715;28;20057;-62
2022/07/25 01:57:34;;;;;;;0.00;0.00;;;24.20;64.40;;;25.57;55.81;100969.84;2078372;28;20081;-62
2022/07/25 01:58:37;;;;;;;0.00;0.00;;;24.20;64.90;;;25.54;55.92;100973.50;2079143;28;20054;-61
2022/07/25 01:59:41;;;;;;;0.00;0.00;;;24.20;64.40;;;25.55;55.74;100965.94;2078323;28;20509;-62
2022/07/25 02:00:44;;;;;;;0.00;0.00;;;24.20;64.40;;;25.54;56.11;100969.94;2079201;28;20501;-62
2022/07/25 02:01:47;;;;;;;0.00;0.00;;;24.20;64.50;;;25.52;55.83;100956.56;2079257;28;20568;-61
2022/07/25 02:03:28;;;;;;;0.00;0.00;;;24.10;64.50;;;25.50;55.60;100963.75;2079012;28;20084;-64
2022/07/25 02:04:17;;;;;;;0.10;0.10;;;24.10;64.70;;;25.47;56.30;100959.84;2079106;28;20045;-62
2022/07/25 02:05:21;;;;;;;0.00;0.00;;;24.10;64.90;;;25.46;55.82;100957.53;2070918;28;20049;-62
2022/07/25 02:06:25;;;;;;;0.00;0.00;;;24.00;65.00;;;25.42;55.74;100954.09;2069584;28;20053;-61
2022/07/25 02:07:29;;;;;;;0.00;0.00;;;24.00;65.10;;;25.42;56.54;100951.34;2078615;28;20073;-61
2022/07/25 02:08:33;;;;;;;0.00;0.00;;;24.00;65.30;;;25.40;56.63;100954.56;2079642;28;20121;-67
2022/07/25 02:09:35;;;;;;;0.00;0.00;;;24.00;65.30;;;25.36;56.66;100951.09;2069270;28;20129;-61
2022/07/25 02:10:39;;;;;;;0.00;0.00;;;24.00;65.40;;;25.31;56.35;100948.09;2071150;28;20057;-61
2022/07/25 02:11:42;;;;;;;0.00;0.00;;;24.00;65.50;;;25.27;56.55;100944.63;2079369;28;20128;-62
2022/07/25 02:12:45;;;;;;;0.00;0.00;;;23.90;65.50;;;25.24;57.26;100946.28;2078306;28;20132;-61
2022/07/25 02:13:48;;;;;;;0.00;0.00;;;23.90;65.70;;;25.22;56.94;100937.66;2078669;28;20565;-61
2022/07/25 02:14:50;;;;;;;0.00;0.00;;;23.90;65.70;;;25.20;56.80;100936.56;2079560;28;20061;-62
2022/07/25 02:15:55;;;;;;;0.00;0.00;;;23.90;65.80;;;25.18;57.38;100938.97;2079800;28;20540;-62
2022/07/25 02:16:57;;;;;;;0.00;0.00;;;23.90;65.80;;;25.15;56.96;100937.09;2079153;28;20045;-61
2022/07/25 02:18:00;;;;;;;0.00;0.00;;;23.90;65.90;;;25.12;57.35;100932.44;2079415;28;20062;-63
2022/07/25 02:19:03;;;;;;;0.00;0.00;;;23.80;66.00;;;25.09;57.28;100923.00;2079582;28;20056;-62
2022/07/25 02:20:08;;;;;;;0.00;0.00;;;23.80;66.20;;;25.08;57.29;100927.75;2079313;28;20087;-61
2022/07/25 02:21:11;;;;;;;0.00;0.00;;;23.70;66.20;;;25.05;57.74;100923.09;2078917;28;20100;-61
2022/07/25 02:22:17;;;;;;;0.00;0.00;;;23.70;66.40;;;25.03;57.50;100925.53;2079468;28;20114;-62
2022/07/25 02:23:21;;;;;;;0.03;0.03;;;23.70;66.50;;;24.95;57.64;100935.25;2079217;28;20176;-62
2022/07/25 02:24:24;;;;;;;0.00;0.00;;;23.60;66.60;;;24.93;57.93;100929.38;2079375;28;20077;-61
2022/07/25 02:25:27;;;;;;;0.00;0.00;;;23.60;67.30;;;24.92;57.67;100930.59;2078810;28;20497;-62
2022/07/25 02:26:29;;;;;;;0.00;0.00;;;23.60;66.80;;;24.91;58.13;100923.50;2078747;28;20084;-62
2022/07/25 02:27:33;;;;;;;0.00;0.00;;;23.50;66.90;;;24.89;57.57;100920.38;2079344;28;20080;-61
2022/07/25 02:28:36;;;;;;;0.00;0.00;;;23.50;67.10;;;24.88;57.72;100916.09;2078501;28;20085;-61
2022/07/25 02:29:39;;;;;;;0.00;0.00;;;23.50;67.20;;;24.88;57.67;100918.06;2078166;28;20060;-61
2022/07/25 02:30:42;;;;;;;0.05;0.05;;;23.50;67.30;;;24.86;58.03;100910.22;2076972;28;20140;-61
2022/07/25 02:31:45;;;;;;;0.00;0.00;;;23.50;67.40;;;24.84;58.00;100907.13;2079499;28;20166;-62
2022/07/25 02:32:48;;;;;;;0.00;0.00;;;23.50;67.50;;;24.83;58.05;100902.03;2079648;28;20057;-62
2022/07/25 02:33:50;;;;;;;0.00;0.00;;;23.50;67.50;;;24.82;58.08;100898.50;2077691;28;20057;-62
2022/07/25 02:34:54;;;;;;;0.00;0.00;;;23.40;67.50;;;24.82;58.05;100904.03;2078102;28;20559;-62
2022/07/25 02:35:56;;;;;;;0.00;0.00;;;23.40;67.60;;;24.77;58.32;100895.47;2077109;28;20151;-62
2022/07/25 02:37:00;;;;;;;0.00;0.00;;;23.40;67.60;;;24.76;58.04;100900.25;2078843;28;20136;-63
2022/07/25 02:38:02;;;;;;;0.00;0.00;;;23.40;67.60;;;24.74;58.17;100891.59;2078418;28;20124;-61
2022/07/25 02:39:07;;;;;;;0.10;0.10;;;23.40;67.70;;;24.70;58.32;100902.00;2078890;28;20106;-61
2022/07/25 02:40:10;;;;;;;0.03;0.00;;;23.40;67.60;;;24.65;58.32;100888.69;2078779;28;20057;-61
2022/07/25 02:41:14;;;;;;;0.10;0.10;;;23.40;67.60;;;24.61;58.53;100890.75;2078911;28;20084;-61
2022/07/25 02:42:17;;;;;;;0.00;0.00;;;23.40;67.60;;;24.54;59.06;100888.19;2078893;28;20061;-61
2022/07/25 02:43:20;;;;;;;0.10;0.10;;;23.40;67.60;;;24.52;58.81;100889.81;2078860;28;20050;-63
2022/07/25 02:44:24;;;;;;;0.00;0.00;;;23.40;67.60;;;24.50;59.15;100890.25;2079752;28;20493;-61
2022/07/25 02:45:26;;;;;;;0.10;0.10;;;23.40;67.60;;;24.50;58.87;100887.47;2077702;28;20049;-64
2022/07/25 02:46:30;;;;;;;0.00;0.00;;;23.40;67.60;;;24.50;58.98;100886.69;2079338;28;20088;-61
2022/07/25 02:47:32;;;;;;;0.00;0.00;;;23.40;67.70;;;24.55;59.10;100886.16;2079157;28;20107;-65
2022/07/25 02:48:36;;;;;;;0.00;0.00;;;23.40;67.70;;;24.57;59.00;100886.53;2079002;28;20525;-61
2022/07/25 02:49:38;;;;;;;0.00;0.00;;;23.40;67.80;;;24.59;58.90;100890.38;2078609;28;20053;-62
2022/07/25 02:50:42;;;;;;;0.00;0.00;;;23.30;67.80;;;24.62;58.61;100877.72;2078919;28;20508;-62
2022/07/25 02:51:44;;;;;;;0.03;0.03;;;23.30;67.80;;;24.60;58.62;100872.63;2078640;28;20571;-61
2022/07/25 02:52:47;;;;;;;0.00;0.00;;;23.40;67.80;;;24.58;58.66;100866.75;2068780;28;20585;-61
2022/07/25 02:53:50;;;;;;;0.00;0.00;;;23.30;67.70;;;24.56;58.77;100869.16;2069272;28;20490;-64
2022/07/25 02:55:01;;;;;;;0.00;0.00;;;23.40;67.70;;;24.51;58.93;100864.19;2078382;28;20103;-63
2022/07/25 02:56:12;;;;;;;0.00;0.00;;;23.30;67.70;;;24.48;59.16;100867.81;2069984;28;21245;-61
2022/07/25 02:57:15;;;;;;;0.00;0.00;;;23.30;67.80;;;24.44;59.18;100858.84;2070109;28;20474;-61
2022/07/25 02:58:18;;;;;;;0.00;0.00;;;23.30;67.80;;;24.40;59.42;100860.94;2078971;28;20053;-61
2022/07/25 02:59:21;;;;;;;0.03;0.03;;;23.30;68.00;;;24.37;59.75;100856.25;2078195;28;20073;-62
2022/07/25 03:00:24;;;;;;;0.00;0.00;;;23.30;68.00;;;24.34;59.37;100851.63;2078333;28;20096;-62
2022/07/25 03:01:27;;;;;;;0.00;0.00;;;23.20;68.10;;;24.33;59.52;100861.13;2078961;28;20493;-62
2022/07/25 03:02:30;;;;;;;0.00;0.00;;;23.20;68.20;;;24.31;59.80;100862.78;2078336;28;20057;-61
2022/07/25 03:03:33;;;;;;;0.00;0.00;;;23.20;68.40;;;24.28;59.89;100864.41;2079241;28;20060;-61
2022/07/25 03:04:36;;;;;;;0.10;0.10;;;23.10;68.50;;;24.24;59.89;100863.72;2078350;28;20054;-62
2022/07/25 03:05:39;;;;;;;0.00;0.00;;;23.10;68.60;;;24.22;59.83;100857.06;2079111;28;20492;-61
2022/07/25 03:06:42;;;;;;;0.00;0.00;;;23.10;68.70;;;24.17;60.12;100850.09;2079822;28;20056;-61
2022/07/25 03:07:45;;;;;;;0.00;0.00;;;23.10;68.70;;;24.18;60.17;100851.63;2078442;28;20077;-61
2022/07/25 03:08:48;;;;;;;0.00;0.00;;;23.10;68.70;;;24.16;60.40;100845.78;2079375;28;20060;-67
2022/07/25 03:09:51;;;;;;;0.00;0.00;;;23.10;68.80;;;24.14;60.36;100841.91;2077769;28;20060;-62
2022/07/25 03:10:56;;;;;;;0.00;0.00;;;23.10;69.40;;;24.10;60.43;100830.19;2078127;28;20184;-61
2022/07/25 03:11:58;;;;;;;0.00;0.00;;;23.10;69.00;;;24.07;60.67;100834.56;2079068;28;20049;-61
2022/07/25 03:13:01;;;;;;;0.00;0.00;;;23.10;69.10;;;24.06;60.72;100833.03;2079245;28;20549;-65
2022/07/25 03:14:06;;;;;;;0.00;0.00;;;23.00;69.20;;;24.06;60.78;100829.47;2078257;28;20056;-61
2022/07/25 03:15:12;;;;;;;0.00;0.00;;;23.00;69.40;;;24.04;60.63;100827.16;2079500;28;20069;-62
2022/07/25 03:16:15;;;;;;;0.00;0.00;;;23.00;69.50;;;24.00;60.89;100823.72;2079070;28;20136;-62
2022/07/25 03:17:19;;;;;;;0.00;0.00;;;22.90;69.60;;;23.97;60.97;100832.88;2079367;28;20529;-61
2022/07/25 03:18:21;;;;;;;0.00;0.00;;;22.90;69.60;;;23.96;60.96;100825.00;2078836;28;20053;-62
2022/07/25 03:19:24;;;;;;;0.00;0.00;;;22.90;70.40;;;23.94;61.16;100819.91;2077433;28;20829;-61
2022/07/25 03:20:27;;;;;;;0.00;0.00;;;22.80;69.90;;;23.93;61.09;100818.34;2077590;28;20582;-63
2022/07/25 03:21:30;;;;;;;0.00;0.00;;;22.80;70.10;;;23.95;61.03;100820.66;2078362;28;20128;-61
2022/07/25 03:22:33;;;;;;;0.00;0.00;;;22.80;70.20;;;23.93;60.94;100815.59;2078970;28;20091;-61
2022/07/25 03:23:37;;;;;;;0.00;0.00;;;22.70;70.40;;;23.91;61.10;100809.75;2078439;28;20400;-61
2022/07/25 03:24:39;;;;;;;0.00;0.00;;;22.70;70.50;;;23.89;61.48;100806.63;2078160;28;20073;-63
2022/07/25 03:25:43;;;;;;;0.00;0.00;;;22.60;70.70;;;23.88;61.32;100801.56;2070445;28;20529;-61
2022/07/25 03:26:46;;;;;;;0.00;0.00;;;22.60;70.90;;;23.87;61.26;100799.97;2069752;28;20061;-62
2022/07/25 03:27:52;;;;;;;0.00;0.00;;;22.60;71.00;;;23.86;61.24;100799.22;2077893;28;20049;-62
2022/07/25 03:28:54;;;;;;;0.00;0.00;;;22.60;71.20;;;23.86;61.34;100803.97;2078460;28;20053;-61
2022/07/25 03:29:59;;;;;;;0.00;0.00;;;22.60;71.10;;;23.86;61.52;100802.00;2077477;28;20463;-62
2022/07/25 03:31:02;;;;;;;0.00;0.00;;;22.50;71.20;;;23.86;61.34;100799.22;2078216;28;20052;-62
2022/07/25 03:32:06;;;;;;;0.05;0.05;;;22.50;71.30;;;23.86;61.10;100790.97;2078793;28;20500;-63
2022/07/25 03:33:09;;;;;;;0.05;0.05;;;22.50;71.40;;;23.86;61.28;100804.75;2077787;28;20482;-62
2022/07/25 03:34:13;;;;;;;0.00;0.00;;;22.40;71.50;;;23.84;61.22;100796.13;2070262;28;20647;-62
2022/07/25 03:35:15;;;;;;;0.03;0.03;;;22.40;71.60;;;23.84;61.22;100798.88;2068967;28;20058;-61
2022/07/25 03:36:19;;;;;;;0.10;0.10;;;22.40;71.60;;;23.77;61.72;100801.78;2069811;28;20070;-62
2022/07/25 03:37:21;;;;;;;0.10;0.10;;;22.40;71.70;;;23.73;61.65;100801.13;2070968;28;20464;-62
2022/07/25 03:38:25;;;;;;;0.10;0.10;;;22.30;71.70;;;23.73;61.63;100800.34;2069878;28;20054;-61
2022/07/25 03:39:28;;;;;;;0.00;0.00;;;22.40;71.80;;;23.69;61.75;100794.16;2070677;28;20053;-61
2022/07/25 03:40:31;;;;;;;0.00;0.00;;;22.40;71.70;;;23.67;61.73;100797.34;2070807;28;20429;-61
2022/07/25 03:41:34;;;;;;;0.10;0.10;;;22.40;71.50;;;23.69;61.69;100794.91;2069968;28;20081;-66
2022/07/25 03:42:39;;;;;;;0.00;0.00;;;22.40;71.50;;;23.68;61.70;100796.13;2069875;28;20041;-61
2022/07/25 03:43:42;;;;;;;0.00;0.00;;;22.50;71.50;;;23.73;61.49;100790.09;2068787;28;20084;-61
2022/07/25 03:44:45;;;;;;;0.03;0.03;;;22.50;71.50;;;23.74;61.67;100794.38;2068420;28;20042;-61
2022/07/25 03:45:48;;;;;;;0.00;0.00;;;22.40;71.50;;;23.75;61.69;100792.41;2062415;28;20069;-62
2022/07/25 03:46:52;;;;;;;0.00;0.00;;;22.40;71.50;;;23.76;61.74;100793.94;2069709;28;20140;-61
2022/07/25 03:47:54;;;;;;;0.00;0.00;;;22.40;71.60;;;23.74;61.61;100791.63;2070545;28;20052;-61
2022/07/25 03:48:58;;;;;;;0.00;0.00;;;22.40;71.60;;;23.73;61.59;100790.09;2070373;28;20567;-61
2022/07/25 03:50:01;;;;;;;0.10;0.10;;;22.40;71.60;;;23.73;61.51;100783.78;2069517;28;20769;-62
2022/07/25 03:51:04;;;;;;;0.00;0.00;;;22.40;71.60;;;23.71;61.67;100789.75;2070581;28;20057;-61
2022/07/25 03:52:08;;;;;;;0.00;0.00;;;22.50;71.50;;;23.69;61.69;100786.63;2069668;28;20050;-61
2022/07/25 03:53:12;;;;;;;0.00;0.00;;;22.50;71.40;;;23.69;61.56;100783.88;2070116;28;20137;-61
2022/07/25 03:54:14;;;;;;;0.00;0.00;;;22.40;71.40;;;23.72;61.46;100787.75;2069801;28;20068;-61
2022/07/25 03:55:18;;;;;;;0.00;0.00;;;22.40;71.40;;;23.70;61.53;100782.69;2069467;28;20061;-62
2022/07/25 03:56:21;;;;;;;0.00;0.00;;;22.50;71.50;;;23.67;61.72;100787.06;2070266;28;20093;-63
2022/07/25 03:57:25;;;;;;;0.00;0.00;;;22.40;71.40;;;23.64;61.77;100776.91;2069806;28;20081;-61
2022/07/25 03:58:28;;;;;;;0.00;0.00;;;22.40;71.40;;;23.62;61.68;100778.53;2070520;28;20080;-62
2022/07/25 03:59:32;;;;;;;0.00;0.00;;;22.50;71.50;;;23.63;62.03;100780.88;2070011;28;20084;-64
2022/07/25 04:00:34;;;;;;;0.10;0.10;;;22.50;71.50;;;23.63;61.89;100778.13;2070558;28;20042;-61
2022/07/25 04:01:39;;;;;;;0.00;0.00;;;22.50;71.40;;;23.63;61.77;100783.63;2070002;28;20465;-61
2022/07/25 04:02:41;;;;;;;0.10;0.10;;;22.50;71.30;;;23.62;61.88;100775.78;2070382;28;20062;-63
2022/07/25 04:03:45;;;;;;;0.00;0.00;;;22.50;71.10;;;23.64;61.75;100776.13;2070362;28;20081;-61
2022/07/25 04:04:47;;;;;;;0.00;0.00;;;22.60;71.10;;;23.65;61.85;100777.69;2071001;28;20391;-64
2022/07/25 04:05:51;;;;;;;0.03;0.03;;;22.50;71.00;;;23.66;61.66;100770.94;2069198;28;20056;-62
2022/07/25 04:06:53;;;;;;;0.00;0.00;;;22.60;70.90;;;23.66;61.82;100776.47;2071029;28;20624;-61
2022/07/25 04:07:56;;;;;;;0.10;0.10;;;22.60;70.80;;;23.66;61.96;100778.47;2069677;28;20130;-61
2022/07/25 04:08:59;;;;;;;0.10;0.10;;;22.60;70.80;;;23.67;61.82;100777.25;2070431;28;20061;-61
2022/07/25 04:10:04;;;;;;;0.05;0.05;;;22.60;70.80;;;23.68;61.74;100779.56;2070737;28;20057;-63
2022/07/25 04:11:06;;;;;;;0.00;0.00;;;22.60;71.00;;;23.70;61.73;100781.91;2070265;28;20053;-61
2022/07/25 04:12:10;;;;;;;0.00;0.00;;;22.60;71.00;;;23.72;61.65;100773.97;2070575;28;20061;-63
2022/07/25 04:13:12;;;;;;;0.10;0.10;;;22.60;71.00;;;23.72;61.77;100783.03;2070804;28;20053;-62
2022/07/25 04:14:19;;;;;;;0.10;0.10;;;22.50;71.00;;;23.71;61.33;100789.75;2069951;28;20233;-61
2022/07/25 04:15:22;;;;;;;0.03;0.03;;;22.50;71.10;;;23.72;61.73;100788.56;2070873;28;20421;-62
2022/07/25 04:16:25;;;;;;;0.10;0.10;;;22.50;71.10;;;23.74;61.55;100790.88;2069727;28;20061;-62
2022/07/25 04:17:30;;;;;;;0.03;0.03;;;22.50;71.10;;;23.72;61.41;100791.31;2070492;28;20532;-66
2022/07/25 04:18:33;;;;;;;0.05;0.05;;;22.50;71.00;;;23.69;61.46;100786.63;2070139;28;20060;-62
2022/07/25 04:19:36;;;;;;;0.10;0.10;;;22.50;71.00;;;23.64;61.61;100781.66;2069975;28;20134;-61
2022/07/25 04:20:39;;;;;;;0.10;0.10;;;22.50;70.90;;;23.65;61.70;100783.19;2070643;28;20042;-62
2022/07/25 04:21:42;;;;;;;0.10;0.10;;;22.50;70.80;;;23.65;61.52;100777.69;2070034;28;20054;-62
2022/07/25 04:22:44;;;;;;;0.00;0.00;;;22.60;70.80;;;23.62;61.75;100778.53;2069683;28;20537;-62
2022/07/25 04:23:50;;;;;;;0.08;0.08;;;22.50;70.80;;;23.64;61.56;100776.91;2069549;28;20503;-62
2022/07/25 04:24:52;;;;;;;0.10;0.10;;;22.50;70.80;;;23.64;61.60;100790.69;2067157;28;20060;-61